createdAt,value
2023-04-21T00:00:00.129Z,9.73
2023-04-21T00:01:32.047Z,9.73
2023-04-21T00:03:04.131Z,9.74
2023-04-21T00:04:36.759Z,9.74
2023-04-21T00:06:09.579Z,9.72
2023-04-21T00:07:41.777Z,9.71
2023-04-21T00:09:13.608Z,9.69
2023-04-21T00:10:45.967Z,9.68
2023-04-21T00:12:18.110Z,9.72
2023-04-21T00:13:49.650Z,9.74
2023-04-21T00:15:21.231Z,9.75
2023-04-21T00:16:52.917Z,9.78
2023-04-21T00:18:25.378Z,9.79
2023-04-21T00:19:56.903Z,9.78
2023-04-21T00:21:28.502Z,9.73
2023-04-21T00:23:00.108Z,9.70
2023-04-21T00:24:31.634Z,9.67
2023-04-21T00:26:03.241Z,9.63
2023-04-21T00:27:35.170Z,9.56
2023-04-21T00:29:06.649Z,9.51
2023-04-21T00:30:38.302Z,9.44
2023-04-21T00:32:10.248Z,9.41
2023-04-21T00:33:41.735Z,9.37
2023-04-21T00:35:13.401Z,9.31
2023-04-21T00:36:44.967Z,9.28
2023-04-21T00:38:16.521Z,9.26
2023-04-21T00:39:48.034Z,9.25
2023-04-21T00:41:19.631Z,9.25
2023-04-21T00:42:51.097Z,9.27
2023-04-21T00:44:22.567Z,9.31
2023-04-21T00:45:54.639Z,9.30
2023-04-21T00:47:26.795Z,9.31
2023-04-21T00:48:58.801Z,9.30
2023-04-21T00:50:30.267Z,9.32
2023-04-21T00:52:02.275Z,9.33
2023-04-21T00:53:33.730Z,9.33
2023-04-21T00:55:05.480Z,9.34
2023-04-21T00:56:37.132Z,9.34
2023-04-21T00:58:08.616Z,9.36
2023-04-21T00:59:40.489Z,9.37
2023-04-21T01:01:13.426Z,9.40
2023-04-21T01:02:45.783Z,9.38
2023-04-21T01:04:17.437Z,9.38
2023-04-21T01:05:49.021Z,9.37
2023-04-21T01:07:20.555Z,9.37
2023-04-21T01:08:52.512Z,9.38
2023-04-21T01:10:24.037Z,9.42
2023-04-21T01:12:03.420Z,9.42
2023-04-21T01:13:34.902Z,9.41
2023-04-21T01:15:06.916Z,9.39
2023-04-21T01:16:38.475Z,9.37
2023-04-21T01:18:10.045Z,9.37
2023-04-21T01:19:42.437Z,9.41
2023-04-21T01:21:14.458Z,9.41
2023-04-21T01:22:45.946Z,9.42
2023-04-21T01:24:17.567Z,9.42
2023-04-21T01:25:49.008Z,9.40
2023-04-21T01:27:20.586Z,9.40
2023-04-21T01:28:52.095Z,9.40
2023-04-21T01:30:23.608Z,9.39
2023-04-21T01:31:55.385Z,9.40
2023-04-21T01:33:27.434Z,9.44
2023-04-21T01:34:59.334Z,9.41
2023-04-21T01:36:31.813Z,9.38
2023-04-21T01:38:03.483Z,9.35
2023-04-21T01:39:35.032Z,9.34
2023-04-21T01:41:06.670Z,9.32
2023-04-21T01:42:38.894Z,9.32
2023-04-21T01:44:10.751Z,9.27
2023-04-21T01:45:42.566Z,9.24
2023-04-21T01:47:14.125Z,9.23
2023-04-21T01:48:45.920Z,9.24
2023-04-21T01:50:17.441Z,9.23
2023-04-21T01:51:48.887Z,9.22
2023-04-21T01:53:20.684Z,9.17
2023-04-21T01:54:52.213Z,9.13
2023-04-21T01:56:23.741Z,9.08
2023-04-21T01:57:57.753Z,9.04
2023-04-21T01:59:29.260Z,9.02
2023-04-21T02:01:00.880Z,8.99
2023-04-21T02:02:32.494Z,8.98
2023-04-21T02:04:04.542Z,8.96
2023-04-21T02:05:36.126Z,8.95
2023-04-21T02:07:07.670Z,8.98
2023-04-21T02:08:39.123Z,8.93
2023-04-21T02:10:10.997Z,8.92
2023-04-21T02:11:42.664Z,8.89
2023-04-21T02:13:14.304Z,8.85
2023-04-21T02:14:48.066Z,8.81
2023-04-21T02:16:20.755Z,8.80
2023-04-21T02:17:52.340Z,8.81
2023-04-21T02:19:24.088Z,8.80
2023-04-21T02:20:57.007Z,8.82
2023-04-21T02:22:28.613Z,8.80
2023-04-21T02:24:00.329Z,8.77
2023-04-21T02:25:31.898Z,8.74
2023-04-21T02:27:03.846Z,8.72
2023-04-21T02:28:35.595Z,8.71
2023-04-21T02:30:07.454Z,8.71
2023-04-21T02:31:54.199Z,8.73
2023-04-21T02:33:29.195Z,8.70
2023-04-21T02:35:00.925Z,8.68
2023-04-21T02:36:32.433Z,8.68
2023-04-21T02:38:07.384Z,8.67
2023-04-21T02:39:39.237Z,8.65
2023-04-21T02:41:11.154Z,8.63
2023-04-21T02:42:42.649Z,8.62
2023-04-21T02:44:14.138Z,8.57
2023-04-21T02:45:46.254Z,8.52
2023-04-21T02:47:17.738Z,8.52
2023-04-21T02:48:49.925Z,8.50
2023-04-21T02:50:21.414Z,8.51
2023-04-21T02:51:52.859Z,8.52
2023-04-21T02:53:24.450Z,8.53
2023-04-21T02:54:55.909Z,8.55
2023-04-21T02:56:27.384Z,8.56
2023-04-21T02:57:58.888Z,8.55
2023-04-21T02:59:30.417Z,8.55
2023-04-21T03:01:02.718Z,8.56
2023-04-21T03:02:34.399Z,8.53
2023-04-21T03:04:06.167Z,8.54
2023-04-21T03:05:37.882Z,8.58
2023-04-21T03:07:13.380Z,8.57
2023-04-21T03:08:44.962Z,8.52
2023-04-21T03:10:16.490Z,8.48
2023-04-21T03:11:48.537Z,8.47
2023-04-21T03:13:20.320Z,8.45
2023-04-21T03:14:52.234Z,8.44
2023-04-21T03:16:23.825Z,8.41
2023-04-21T03:17:55.713Z,8.38
2023-04-21T03:19:27.163Z,8.34
2023-04-21T03:21:01.623Z,8.32
2023-04-21T03:22:33.205Z,8.32
2023-04-21T03:24:05.642Z,8.28
2023-04-21T03:25:38.141Z,8.28
2023-04-21T03:27:11.070Z,8.28
2023-04-21T03:28:42.763Z,8.22
2023-04-21T03:30:14.335Z,8.22
2023-04-21T03:31:46.158Z,8.24
2023-04-21T03:33:17.668Z,8.26
2023-04-21T03:34:50.472Z,8.23
2023-04-21T03:36:21.985Z,8.24
2023-04-21T03:37:54.012Z,8.25
2023-04-21T03:39:25.985Z,8.31
2023-04-21T03:40:57.758Z,8.35
2023-04-21T03:42:30.263Z,8.37
2023-04-21T03:44:01.758Z,8.36
2023-04-21T03:45:35.053Z,8.33
2023-04-21T03:47:06.716Z,8.31
2023-04-21T03:48:38.168Z,8.27
2023-04-21T03:50:09.693Z,8.27
2023-04-21T03:51:41.316Z,8.24
2023-04-21T03:53:15.675Z,8.17
2023-04-21T03:54:47.195Z,8.14
2023-04-21T03:56:18.717Z,8.18
2023-04-21T03:57:50.343Z,8.19
2023-04-21T03:59:21.938Z,8.14
2023-04-21T04:00:53.939Z,8.10
2023-04-21T04:02:25.863Z,8.07
2023-04-21T04:03:57.721Z,8.03
2023-04-21T04:05:29.234Z,8.01
2023-04-21T04:07:00.771Z,8.05
2023-04-21T04:08:32.243Z,8.08
2023-04-21T04:10:03.943Z,8.06
2023-04-21T04:11:35.658Z,8.11
2023-04-21T04:13:07.167Z,8.14
2023-04-21T04:14:39.539Z,8.19
2023-04-21T04:16:11.275Z,8.22
2023-04-21T04:17:43.134Z,8.23
2023-04-21T04:19:14.682Z,8.24
2023-04-21T04:20:46.213Z,8.22
2023-04-21T04:22:17.726Z,8.26
2023-04-21T04:23:51.748Z,8.35
2023-04-21T04:25:23.540Z,8.48
2023-04-21T04:26:55.120Z,8.65
2023-04-21T04:28:26.597Z,8.76
2023-04-21T04:29:58.065Z,8.86
2023-04-21T04:31:30.503Z,8.97
2023-04-21T04:33:02.377Z,9.05
2023-04-21T04:34:37.614Z,9.16
2023-04-21T04:36:09.470Z,9.24
2023-04-21T04:37:41.386Z,9.32
2023-04-21T04:39:12.927Z,9.42
2023-04-21T04:40:44.522Z,9.52
2023-04-21T04:42:15.938Z,9.59
2023-04-21T04:43:47.665Z,9.68
2023-04-21T04:45:22.327Z,9.74
2023-04-21T04:46:56.834Z,9.82
2023-04-21T04:48:28.429Z,9.90
2023-04-21T04:49:59.928Z,9.96
2023-04-21T04:51:32.826Z,10.01
2023-04-21T04:53:04.317Z,10.06
2023-04-21T04:54:36.396Z,10.14
2023-04-21T04:56:07.903Z,10.19
2023-04-21T04:57:39.416Z,10.21
2023-04-21T04:59:11.008Z,10.29
2023-04-21T05:00:42.495Z,10.40
2023-04-21T05:02:14.189Z,10.42
2023-04-21T05:03:45.933Z,10.54
2023-04-21T05:05:17.923Z,10.64
2023-04-21T05:06:50.059Z,10.62
2023-04-21T05:08:21.580Z,10.68
2023-04-21T05:09:53.160Z,10.70
2023-04-21T05:11:24.987Z,10.73
2023-04-21T05:12:56.487Z,10.79
2023-04-21T05:14:27.975Z,10.82
2023-04-21T05:16:02.088Z,10.94
2023-04-21T05:17:34.345Z,11.01
2023-04-21T05:19:06.021Z,11.08
2023-04-21T05:20:37.577Z,11.20
2023-04-21T05:22:09.092Z,11.35
2023-04-21T05:23:40.790Z,11.53
2023-04-21T05:25:16.139Z,11.69
2023-04-21T05:26:47.840Z,11.86
2023-04-21T05:28:19.959Z,11.99
2023-04-21T05:29:51.885Z,12.11
2023-04-21T05:31:23.954Z,12.20
2023-04-21T05:32:55.757Z,12.31
2023-04-21T05:34:27.309Z,12.35
2023-04-21T05:35:58.873Z,12.36
2023-04-21T05:37:30.360Z,12.44
2023-04-21T05:39:01.900Z,12.53
2023-04-21T05:40:33.422Z,12.63
2023-04-21T05:42:05.190Z,12.68
2023-04-21T05:43:36.743Z,12.69
2023-04-21T05:45:08.238Z,12.66
2023-04-21T05:46:39.955Z,12.62
2023-04-21T05:48:13.424Z,12.59
2023-04-21T05:49:50.405Z,12.49
2023-04-21T05:51:22.011Z,12.36
2023-04-21T05:52:53.491Z,12.20
2023-04-21T05:54:25.051Z,12.16
2023-04-21T05:55:56.614Z,12.09
2023-04-21T05:57:28.069Z,12.05
2023-04-21T05:58:59.932Z,11.92
2023-04-21T06:00:31.425Z,11.72
2023-04-21T06:02:03.995Z,11.67
2023-04-21T06:03:35.965Z,11.60
2023-04-21T06:05:11.025Z,11.55
2023-04-21T06:06:44.415Z,11.46
2023-04-21T06:08:15.984Z,11.51
2023-04-21T06:09:50.288Z,11.51
2023-04-21T06:11:22.542Z,11.50
2023-04-21T06:12:54.639Z,11.55
2023-04-21T06:14:26.222Z,11.55
2023-04-21T06:15:57.817Z,11.60
2023-04-21T06:17:29.391Z,11.64
2023-04-21T06:19:01.354Z,11.70
2023-04-21T06:20:32.908Z,11.79
2023-04-21T06:22:04.457Z,11.87
2023-04-21T06:23:36.316Z,11.90
2023-04-21T06:25:07.998Z,11.89
2023-04-21T06:26:42.314Z,11.91
2023-04-21T06:28:13.823Z,11.99
2023-04-21T06:29:45.360Z,12.09
2023-04-21T06:31:16.927Z,12.18
2023-04-21T06:32:48.988Z,12.27
2023-04-21T06:34:21.771Z,12.35
2023-04-21T06:35:53.825Z,12.43
2023-04-21T06:37:25.456Z,12.47
2023-04-21T06:38:56.977Z,12.50
2023-04-21T06:40:28.422Z,12.56
2023-04-21T06:42:00.025Z,12.63
2023-04-21T06:43:31.687Z,12.70
2023-04-21T06:45:03.653Z,12.77
2023-04-21T06:46:35.312Z,12.75
2023-04-21T06:48:07.014Z,12.77
2023-04-21T06:49:38.835Z,12.78
2023-04-21T06:51:10.402Z,12.76
2023-04-21T06:52:41.891Z,12.70
2023-04-21T06:54:13.508Z,12.63
2023-04-21T06:55:45.135Z,12.69
2023-04-21T06:57:17.460Z,12.76
2023-04-21T07:01:16.173Z,13.00
2023-04-21T07:02:47.920Z,13.04
2023-04-21T07:04:19.607Z,13.07
2023-04-21T07:05:51.253Z,13.13
2023-04-21T07:07:23.271Z,13.17
2023-04-21T07:08:54.779Z,13.15
2023-04-21T07:10:26.925Z,13.12
2023-04-21T07:11:58.973Z,13.15
2023-04-21T07:13:30.574Z,13.22
2023-04-21T07:15:02.280Z,13.28
2023-04-21T07:16:33.759Z,13.33
2023-04-21T07:18:05.568Z,13.28
2023-04-21T07:19:37.407Z,13.24
2023-04-21T07:21:08.981Z,13.18
2023-04-21T07:22:40.552Z,13.17
2023-04-21T07:24:12.072Z,13.15
2023-04-21T07:25:43.994Z,13.18
2023-04-21T07:27:15.786Z,13.21
2023-04-21T07:28:47.576Z,13.26
2023-04-21T07:30:19.033Z,13.32
2023-04-21T07:31:51.862Z,13.39
2023-04-21T07:33:23.577Z,13.46
2023-04-21T07:34:55.128Z,13.50
2023-04-21T07:36:29.965Z,13.50
2023-04-21T07:38:02.586Z,13.56
2023-04-21T07:39:34.175Z,13.61
2023-04-21T07:41:06.220Z,13.68
2023-04-21T07:42:37.914Z,13.77
2023-04-21T07:44:09.453Z,13.82
2023-04-21T07:45:40.923Z,13.86
2023-04-21T07:47:12.767Z,13.87
2023-04-21T07:48:45.653Z,13.88
2023-04-21T07:50:17.234Z,13.93
2023-04-21T07:51:48.703Z,13.99
2023-04-21T07:53:20.358Z,14.08
2023-04-21T07:54:51.977Z,14.13
2023-04-21T07:56:23.509Z,14.17
2023-04-21T07:57:55.234Z,14.22
2023-04-21T07:59:26.731Z,14.25
2023-04-21T08:00:58.306Z,14.28
2023-04-21T08:02:29.922Z,14.33
2023-04-21T08:04:01.619Z,14.35
2023-04-21T08:05:36.629Z,14.35
2023-04-21T08:07:10.143Z,14.43
2023-04-21T08:08:41.884Z,14.48
2023-04-21T08:10:13.584Z,14.57
2023-04-21T08:11:45.232Z,14.71
2023-04-21T08:13:17.196Z,14.86
2023-04-21T08:14:49.317Z,14.98
2023-04-21T08:16:20.924Z,15.10
2023-04-21T08:17:52.544Z,15.23
2023-04-21T08:19:24.157Z,15.33
2023-04-21T08:20:58.173Z,15.50
2023-04-21T08:22:29.840Z,15.72
2023-04-21T08:24:01.542Z,15.95
2023-04-21T08:25:33.105Z,16.23
2023-04-21T08:27:04.631Z,16.46
2023-04-21T08:28:36.202Z,16.59
2023-04-21T08:30:08.170Z,16.78
2023-04-21T08:31:40.510Z,16.90
2023-04-21T08:33:13.966Z,16.82
2023-04-21T08:34:45.692Z,16.84
2023-04-21T08:36:26.394Z,16.85
2023-04-21T08:38:00.951Z,16.93
2023-04-21T08:39:32.618Z,17.00
2023-04-21T08:41:04.493Z,17.10
2023-04-21T08:42:37.079Z,17.17
2023-04-21T08:44:09.008Z,17.29
2023-04-21T08:45:41.187Z,17.37
2023-04-21T08:47:13.474Z,17.53
2023-04-21T08:48:45.053Z,17.66
2023-04-21T08:50:16.757Z,17.74
2023-04-21T08:51:48.385Z,17.82
2023-04-21T08:53:19.998Z,17.88
2023-04-21T08:54:53.434Z,18.07
2023-04-21T08:56:25.540Z,18.25
2023-04-21T08:57:57.362Z,18.42
2023-04-21T08:59:29.266Z,18.50
2023-04-21T09:01:00.848Z,18.54
2023-04-21T09:02:32.714Z,18.57
2023-04-21T09:04:17.496Z,18.58
2023-04-21T09:05:57.585Z,18.47
2023-04-21T09:07:33.231Z,18.32
2023-04-21T09:09:05.688Z,18.20
2023-04-21T09:10:48.579Z,18.13
2023-04-21T09:12:20.150Z,18.20
2023-04-21T09:13:56.885Z,18.36
2023-04-21T09:15:28.461Z,18.51
2023-04-21T09:17:01.164Z,18.54
2023-04-21T09:18:37.014Z,18.47
2023-04-21T09:20:18.170Z,18.45
2023-04-21T09:21:49.632Z,18.54
2023-04-21T09:23:22.052Z,18.65
2023-04-21T09:24:57.610Z,18.74
2023-04-21T09:26:29.612Z,18.81
2023-04-21T09:28:01.184Z,19.01
2023-04-21T09:29:32.977Z,19.23
2023-04-21T09:31:04.645Z,19.39
2023-04-21T09:32:36.864Z,19.58
2023-04-21T09:34:17.710Z,19.73
2023-04-21T09:35:49.926Z,19.66
2023-04-21T09:37:24.606Z,19.64
2023-04-21T09:39:24.310Z,19.58
2023-04-21T09:41:00.073Z,19.46
2023-04-21T09:42:38.960Z,19.34
2023-04-21T09:44:11.867Z,19.18
2023-04-21T09:45:43.599Z,19.14
2023-04-21T09:47:15.638Z,19.06
2023-04-21T09:48:47.432Z,19.06
2023-04-21T09:50:26.712Z,19.07
2023-04-21T09:52:19.133Z,19.09
2023-04-21T09:53:51.982Z,19.10
2023-04-21T09:55:27.063Z,19.14
2023-04-21T09:56:59.305Z,19.15
2023-04-21T09:58:32.090Z,19.17
2023-04-21T10:00:12.230Z,19.09
2023-04-21T10:01:43.809Z,19.06
2023-04-21T10:03:15.641Z,19.09
2023-04-21T10:04:47.575Z,19.08
2023-04-21T10:06:19.537Z,19.08
2023-04-21T10:07:51.282Z,19.06
2023-04-21T10:09:23.059Z,19.00
2023-04-21T10:10:54.678Z,18.98
2023-04-21T10:12:27.248Z,18.99
2023-04-21T10:13:58.888Z,19.04
2023-04-21T10:15:31.751Z,19.06
2023-04-21T10:17:07.030Z,19.04
2023-04-21T10:18:39.294Z,19.05
2023-04-21T10:20:11.037Z,19.03
2023-04-21T10:21:42.501Z,19.05
2023-04-21T10:23:25.783Z,19.03
2023-04-21T10:24:57.792Z,18.94
2023-04-21T10:26:35.699Z,18.88
2023-04-21T10:28:07.166Z,18.83
2023-04-21T10:29:55.385Z,18.72
2023-04-21T10:31:33.289Z,18.59
2023-04-21T10:33:05.584Z,18.50
2023-04-21T10:34:41.594Z,18.49
2023-04-21T10:36:14.242Z,18.45
2023-04-21T10:37:45.764Z,18.44
2023-04-21T10:39:26.486Z,18.41
2023-04-21T10:41:09.384Z,18.40
2023-04-21T10:42:40.974Z,18.39
2023-04-21T10:44:13.131Z,18.37
2023-04-21T10:45:44.660Z,18.27
2023-04-21T10:47:16.853Z,18.18
2023-04-21T10:48:54.484Z,18.05
2023-04-21T10:50:29.918Z,18.02
2023-04-21T10:52:02.785Z,17.96
2023-04-21T10:53:41.160Z,17.91
2023-04-21T10:55:15.800Z,17.88
2023-04-21T10:56:47.482Z,17.91
2023-04-21T10:58:19.074Z,17.97
2023-04-21T10:59:50.958Z,18.02
2023-04-21T11:01:22.533Z,18.12
2023-04-21T11:03:03.797Z,18.24
2023-04-21T11:04:35.786Z,18.36
2023-04-21T11:06:18.174Z,18.49
2023-04-21T11:07:49.667Z,18.75
2023-04-21T11:09:21.191Z,18.97
2023-04-21T11:10:54.596Z,19.11
2023-04-21T11:12:32.850Z,19.29
2023-04-21T11:14:04.463Z,19.34
2023-04-21T11:15:36.712Z,19.41
2023-04-21T11:17:11.745Z,19.52
2023-04-21T11:18:44.001Z,19.55
2023-04-21T11:20:15.999Z,19.70
2023-04-21T11:21:51.637Z,19.65
2023-04-21T11:23:23.180Z,19.58
2023-04-21T11:24:55.764Z,19.64
2023-04-21T11:26:33.780Z,19.73
2023-04-21T11:28:06.632Z,19.77
2023-04-21T11:29:39.196Z,19.79
2023-04-21T11:31:10.921Z,19.78
2023-04-21T11:32:42.828Z,19.66
2023-04-21T11:34:15.793Z,19.57
2023-04-21T11:35:47.447Z,19.45
2023-04-21T11:37:23.722Z,19.46
2023-04-21T11:38:55.477Z,19.50
2023-04-21T11:40:27.063Z,19.43
2023-04-21T11:41:58.600Z,19.30
2023-04-21T11:43:30.066Z,19.16
2023-04-21T11:45:01.566Z,19.03
2023-04-21T11:46:33.682Z,18.92
2023-04-21T11:48:15.779Z,18.82
2023-04-21T11:49:47.943Z,18.73
2023-04-21T11:51:22.178Z,18.68
2023-04-21T11:52:53.955Z,18.60
2023-04-21T11:54:25.666Z,18.63
2023-04-21T11:55:58.047Z,18.65
2023-04-21T11:57:30.289Z,18.66
2023-04-21T11:59:02.332Z,18.62
2023-04-21T12:00:33.828Z,18.56
2023-04-21T12:02:05.600Z,18.47
2023-04-21T12:03:37.330Z,18.42
2023-04-21T12:05:09.458Z,18.46
2023-04-21T12:06:41.305Z,18.46
2023-04-21T12:08:16.182Z,18.53
2023-04-21T12:09:51.220Z,18.60
2023-04-21T12:11:23.847Z,18.67
2023-04-21T12:12:56.369Z,18.78
2023-04-21T12:14:27.876Z,18.89
2023-04-21T12:16:02.399Z,19.01
2023-04-21T12:17:38.491Z,19.13
2023-04-21T12:19:13.115Z,19.28
2023-04-21T12:20:51.426Z,19.40
2023-04-21T12:22:23.729Z,19.52
2023-04-21T12:23:55.378Z,19.65
2023-04-21T12:25:26.847Z,19.78
2023-04-21T12:26:58.424Z,19.74
2023-04-21T12:28:29.928Z,19.68
2023-04-21T12:30:01.730Z,19.69
2023-04-21T12:31:33.924Z,19.69
2023-04-21T12:33:05.620Z,19.67
2023-04-21T12:34:37.363Z,19.59
2023-04-21T12:36:08.912Z,19.60
2023-04-21T12:37:40.711Z,19.54
2023-04-21T12:39:13.545Z,19.43
2023-04-21T12:40:45.132Z,19.23
2023-04-21T12:42:16.771Z,19.05
2023-04-21T12:43:48.410Z,18.91
2023-04-21T12:45:20.020Z,18.76
2023-04-21T12:46:52.161Z,18.73
2023-04-21T12:48:24.363Z,18.84
2023-04-21T12:49:56.552Z,18.88
2023-04-21T12:51:28.069Z,18.92
2023-04-21T12:52:59.825Z,18.92
2023-04-21T12:54:31.848Z,18.92
2023-04-21T12:56:05.216Z,18.91
2023-04-21T12:57:37.279Z,18.98
2023-04-21T12:59:10.494Z,19.15
2023-04-21T13:00:42.862Z,19.26
2023-04-21T13:02:14.468Z,19.41
2023-04-21T13:03:46.400Z,19.48
2023-04-21T13:05:18.047Z,19.61
2023-04-21T13:06:49.577Z,19.68
2023-04-21T13:08:24.235Z,19.71
2023-04-21T13:09:56.052Z,19.86
2023-04-21T13:11:27.768Z,20.00
2023-04-21T13:12:59.371Z,20.10
2023-04-21T13:14:31.191Z,20.15
2023-04-21T13:16:02.898Z,20.21
2023-04-21T13:17:34.556Z,20.39
2023-04-21T13:19:06.497Z,20.48
2023-04-21T13:20:38.122Z,20.45
2023-04-21T13:22:09.617Z,20.39
2023-04-21T13:23:41.484Z,20.42
2023-04-21T13:25:13.092Z,20.43
2023-04-21T13:26:44.924Z,20.41
2023-04-21T13:28:17.758Z,20.25
2023-04-21T13:29:49.458Z,20.03
2023-04-21T13:31:21.527Z,19.86
2023-04-21T13:32:53.085Z,19.80
2023-04-21T13:34:24.757Z,19.88
2023-04-21T13:35:56.386Z,19.98
2023-04-21T13:37:28.304Z,20.19
2023-04-21T13:39:00.825Z,20.37
2023-04-21T13:40:32.375Z,20.55
2023-04-21T13:42:04.135Z,20.77
2023-04-21T13:43:35.852Z,21.00
2023-04-21T13:45:07.771Z,21.14
2023-04-21T13:46:39.337Z,21.27
2023-04-21T13:48:11.548Z,21.31
2023-04-21T13:49:43.534Z,21.33
2023-04-21T13:51:15.070Z,21.35
2023-04-21T13:52:47.082Z,21.37
2023-04-21T13:54:18.665Z,21.36
2023-04-21T13:55:50.736Z,21.43
2023-04-21T13:57:22.372Z,21.44
2023-04-21T13:58:55.286Z,21.64
2023-04-21T14:00:27.331Z,21.83
2023-04-21T14:01:58.977Z,21.90
2023-04-21T14:03:30.963Z,22.01
2023-04-21T14:05:03.136Z,22.04
2023-04-21T14:06:34.824Z,22.04
2023-04-21T14:08:06.395Z,22.04
2023-04-21T14:09:37.946Z,22.01
2023-04-21T14:11:09.463Z,22.12
2023-04-21T14:12:40.985Z,22.24
2023-04-21T14:14:15.264Z,22.31
2023-04-21T14:15:48.470Z,22.42
2023-04-21T14:17:19.952Z,22.55
2023-04-21T14:18:51.881Z,22.61
2023-04-21T14:20:23.466Z,22.64
2023-04-21T14:21:55.135Z,22.64
2023-04-21T14:23:26.677Z,22.68
2023-04-21T14:24:58.587Z,22.53
2023-04-21T14:26:30.284Z,22.48
2023-04-21T14:28:02.083Z,22.56
2023-04-21T14:29:33.942Z,22.62
2023-04-21T14:31:05.831Z,22.51
2023-04-21T14:32:37.995Z,22.46
2023-04-21T14:34:09.682Z,22.53
2023-04-21T14:35:42.200Z,22.56
2023-04-21T14:37:14.261Z,22.50
2023-04-21T14:38:45.868Z,22.39
2023-04-21T14:40:17.950Z,22.27
2023-04-21T14:41:49.421Z,22.33
2023-04-21T14:43:21.378Z,22.35
2023-04-21T14:44:52.912Z,22.40
2023-04-21T14:46:24.433Z,22.50
2023-04-21T14:47:56.069Z,22.57
2023-04-21T14:49:28.184Z,22.63
2023-04-21T14:50:59.989Z,22.67
2023-04-21T14:52:31.967Z,22.59
2023-04-21T14:54:03.580Z,22.52
2023-04-21T14:55:35.070Z,22.46
2023-04-21T14:57:19.927Z,22.45
2023-04-21T14:58:52.703Z,22.41
2023-04-21T15:00:24.483Z,22.42
2023-04-21T15:01:56.389Z,22.38
2023-04-21T15:03:28.158Z,22.33
2023-04-21T15:04:59.797Z,22.18
2023-04-21T15:06:31.742Z,22.03
2023-04-21T15:08:03.302Z,21.89
2023-04-21T15:09:36.299Z,21.78
2023-04-21T15:11:08.259Z,21.67
2023-04-21T15:12:41.302Z,21.59
2023-04-21T15:14:13.202Z,21.49
2023-04-21T15:15:45.658Z,21.32
2023-04-21T15:17:17.187Z,21.19
2023-04-21T15:18:48.766Z,21.03
2023-04-21T15:20:29.491Z,20.95
2023-04-21T15:22:08.409Z,20.84
2023-04-21T15:23:40.363Z,20.84
2023-04-21T15:25:11.939Z,20.84
2023-04-21T15:26:43.727Z,20.85
2023-04-21T15:28:15.370Z,20.87
2023-04-21T15:29:46.915Z,20.85
2023-04-21T15:31:18.889Z,20.88
2023-04-21T15:32:50.535Z,20.97
2023-04-21T15:34:22.208Z,20.96
2023-04-21T15:35:53.974Z,20.95
2023-04-21T15:37:25.999Z,20.92
2023-04-21T15:38:57.889Z,20.92
2023-04-21T15:40:29.745Z,20.92
2023-04-21T15:42:01.922Z,20.91
2023-04-21T15:43:33.709Z,20.84
2023-04-21T15:45:05.489Z,20.74
2023-04-21T15:46:37.198Z,20.71
2023-04-21T15:59:58.930Z,19.52
2023-04-21T16:01:30.556Z,19.42
2023-04-21T16:03:02.349Z,19.40
2023-04-21T16:04:34.345Z,19.39
2023-04-21T16:06:06.737Z,19.36
2023-04-21T16:07:38.384Z,19.40
2023-04-21T16:09:11.019Z,19.46
2023-04-21T16:10:42.715Z,19.54
2023-04-21T16:12:14.357Z,19.60
2023-04-21T16:13:46.587Z,19.58
2023-04-21T16:15:24.264Z,19.62
2023-04-21T16:16:56.713Z,19.63
2023-04-21T16:18:28.482Z,19.64
2023-04-21T16:20:00.593Z,19.65
2023-04-21T16:21:32.168Z,19.57
2023-04-21T16:23:04.913Z,19.48
2023-04-21T16:24:36.824Z,19.37
2023-04-21T16:26:09.294Z,19.32
2023-04-21T16:27:40.926Z,19.22
2023-04-21T16:29:12.409Z,19.13
2023-04-21T16:30:44.135Z,19.10
2023-04-21T16:32:15.719Z,19.01
2023-04-21T16:33:47.387Z,18.91
2023-04-21T16:35:19.031Z,18.77
2023-04-21T16:36:51.074Z,18.66
2023-04-21T16:38:23.302Z,18.60
2023-04-21T16:39:55.063Z,18.47
2023-04-21T16:41:26.925Z,18.38
2023-04-21T16:42:58.606Z,18.29
2023-04-21T16:44:30.290Z,18.23
2023-04-21T16:46:02.185Z,18.20
2023-04-21T16:47:40.433Z,18.17
2023-04-21T16:49:14.031Z,18.14
2023-04-21T16:50:45.688Z,18.12
2023-04-21T16:52:17.268Z,18.06
2023-04-21T16:53:48.859Z,18.04
2023-04-21T16:55:20.398Z,18.03
2023-04-21T16:56:51.954Z,17.96
2023-04-21T16:58:24.640Z,17.88
2023-04-21T16:59:56.292Z,17.83
2023-04-21T17:01:27.933Z,17.78
2023-04-21T17:02:59.693Z,17.69
2023-04-21T17:04:31.537Z,17.60
2023-04-21T17:06:05.116Z,17.49
2023-04-21T17:07:36.735Z,17.36
2023-04-21T17:09:08.709Z,17.24
2023-04-21T17:10:40.206Z,17.12
2023-04-21T17:12:12.310Z,16.97
2023-04-21T17:13:44.052Z,16.87
2023-04-21T17:15:16.192Z,16.90
2023-04-21T17:16:47.793Z,16.88
2023-04-21T17:18:19.413Z,16.89
2023-04-21T17:19:52.492Z,16.87
2023-04-21T17:21:24.123Z,16.86
2023-04-21T17:22:55.831Z,16.87
2023-04-21T17:24:31.241Z,16.81
2023-04-21T17:26:12.420Z,16.75
2023-04-21T17:27:44.606Z,16.74
2023-04-21T17:29:16.125Z,16.72
2023-04-21T17:30:47.697Z,16.66
2023-04-21T17:32:19.849Z,16.59
2023-04-21T17:33:53.419Z,16.51
2023-04-21T17:35:25.006Z,16.47
2023-04-21T17:36:56.792Z,16.44
2023-04-21T17:38:28.914Z,16.38
2023-04-21T17:40:02.844Z,16.32
2023-04-21T17:41:34.881Z,16.27
2023-04-21T17:43:06.482Z,16.21
2023-04-21T17:44:40.114Z,16.16
2023-04-21T17:46:12.446Z,16.11
2023-04-21T17:47:44.015Z,16.09
2023-04-21T17:49:17.457Z,16.11
2023-04-21T17:50:49.096Z,16.06
2023-04-21T17:52:20.705Z,16.01
2023-04-21T17:53:52.772Z,15.94
2023-04-21T17:55:24.357Z,15.89
2023-04-21T17:56:56.498Z,15.85
2023-04-21T17:58:28.157Z,15.77
2023-04-21T17:59:59.726Z,15.70
2023-04-21T18:01:31.340Z,15.58
2023-04-21T18:03:03.397Z,15.51
2023-04-21T18:04:35.245Z,15.46
2023-04-21T18:06:07.527Z,15.49
2023-04-21T18:07:40.385Z,15.52
2023-04-21T18:09:12.476Z,15.52
2023-04-21T18:10:44.387Z,15.45
2023-04-21T18:12:16.434Z,15.38
2023-04-21T18:13:47.968Z,15.32
2023-04-21T18:15:19.719Z,15.26
2023-04-21T18:16:51.607Z,15.24
2023-04-21T18:18:23.311Z,15.30
2023-04-21T18:19:54.847Z,15.32
2023-04-21T18:21:27.559Z,15.30
2023-04-21T18:22:59.158Z,15.25
2023-04-21T18:24:30.872Z,15.16
2023-04-21T18:26:02.865Z,15.08
2023-04-21T18:27:34.493Z,15.07
2023-04-21T18:29:06.599Z,15.07
2023-04-21T18:30:39.075Z,15.03
2023-04-21T18:32:10.690Z,14.98
2023-04-21T18:33:42.246Z,14.96
2023-04-21T18:35:13.793Z,14.90
2023-04-21T18:36:45.369Z,14.88
2023-04-21T18:38:16.867Z,14.82
2023-04-21T18:39:48.890Z,14.79
2023-04-21T18:41:20.565Z,14.76
2023-04-21T18:42:52.347Z,14.72
2023-04-21T18:44:23.944Z,14.69
2023-04-21T18:45:56.033Z,14.65
2023-04-21T18:47:27.629Z,14.65
2023-04-21T18:48:59.346Z,14.62
2023-04-21T18:50:32.529Z,14.58
2023-04-21T18:52:04.074Z,14.56
2023-04-21T18:53:36.058Z,14.51
2023-04-21T18:55:07.884Z,14.50
2023-04-21T18:56:39.524Z,14.44
2023-04-21T18:58:12.137Z,14.39
2023-04-21T18:59:44.168Z,14.36
2023-04-21T19:01:16.004Z,14.33
2023-04-21T19:02:51.803Z,14.30
2023-04-21T19:04:23.713Z,14.26
2023-04-21T19:05:55.389Z,14.23
2023-04-21T19:07:27.269Z,14.20
2023-04-21T19:08:58.888Z,14.12
2023-04-21T19:10:31.485Z,14.07
2023-04-21T19:12:03.849Z,14.05
2023-04-21T19:13:35.403Z,14.01
2023-04-21T19:15:07.345Z,13.97
2023-04-21T19:16:39.098Z,13.94
2023-04-21T19:18:10.989Z,13.93
2023-04-21T19:19:42.643Z,13.92
2023-04-21T19:21:14.406Z,13.91
2023-04-21T19:22:46.578Z,13.91
2023-04-21T19:24:18.361Z,13.85
2023-04-21T19:25:54.748Z,13.87
2023-04-21T19:27:26.345Z,13.86
2023-04-21T19:28:58.242Z,13.85
2023-04-21T19:30:29.870Z,13.85
2023-04-21T19:32:02.422Z,13.82
2023-04-21T19:33:34.164Z,13.79
2023-04-21T19:35:05.898Z,13.80
2023-04-21T19:36:37.693Z,13.81
2023-04-21T19:38:10.106Z,13.78
2023-04-21T19:39:42.105Z,13.79
2023-04-21T19:41:13.855Z,13.80
2023-04-21T19:42:45.859Z,13.82
2023-04-21T19:44:17.411Z,13.80
2023-04-21T19:45:49.151Z,13.78
2023-04-21T19:47:21.350Z,13.79
2023-04-21T19:48:53.021Z,13.78
2023-04-21T19:50:24.616Z,13.76
2023-04-21T19:51:56.228Z,13.75
2023-04-21T19:53:28.442Z,13.74
2023-04-21T19:55:00.059Z,13.68
2023-04-21T19:56:32.745Z,13.65
2023-04-21T19:58:04.238Z,13.62
2023-04-21T19:59:36.132Z,13.67
2023-04-21T20:01:08.101Z,13.72
2023-04-21T20:02:40.002Z,13.74
2023-04-21T20:04:12.222Z,13.75
2023-04-21T20:05:45.794Z,13.75
2023-04-21T20:07:17.391Z,13.76
2023-04-21T20:08:58.132Z,13.70
2023-04-21T20:10:30.896Z,13.66
2023-04-21T20:12:11.232Z,13.63
2023-04-21T20:13:51.708Z,13.57